Time,TemperatureF,DewpointF,PressureIn,WindDirection,WindDirectionDegrees,WindSpeedMPH,WindSpeedGustMPH,Humidity,HourlyPrecipIn,Conditions,Clouds,dailyrainin,SoftwareType,DateUTC
2013-05-16 00:02:00,41.4,36.3,29.81,ESE,113,0.0,5.0,82,0.00,,,0.00,meteohub,2013-05-16 07:02:00,
2013-05-16 00:07:00,41.2,36.5,29.81,SE,144,2.0,5.0,83,0.00,,,0.00,meteohub,2013-05-16 07:07:00,
2013-05-16 00:12:00,40.6,36.1,29.81,SE,144,1.0,4.0,84,0.00,,,0.00,meteohub,2013-05-16 07:12:00,
2013-05-16 00:17:00,40.1,35.6,29.81,SE,144,0.0,4.0,84,0.00,,,0.00,meteohub,2013-05-16 07:17:00,
2013-05-16 00:22:00,39.7,35.6,29.81,SE,144,0.0,3.0,85,0.00,,,0.00,meteohub,2013-05-16 07:22:00,
2013-05-16 00:27:00,39.6,35.4,29.81,SE,144,0.0,3.0,85,0.00,,,0.00,meteohub,2013-05-16 07:27:00,
2013-05-16 00:32:00,39.4,35.2,29.81,SE,144,0.0,1.0,85,0.00,,,0.00,meteohub,2013-05-16 07:32:00,
2013-05-16 00:37:00,39.0,34.9,29.81,SE,144,0.0,0.0,85,0.00,,,0.00,meteohub,2013-05-16 07:37:00,
2013-05-16 00:42:00,38.8,35.1,29.81,SE,144,0.0,2.0,86,0.00,,,0.00,meteohub,2013-05-16 07:42:00,
2013-05-16 00:47:00,38.8,35.2,29.81,SE,144,1.0,2.0,87,0.00,,,0.00,meteohub,2013-05-16 07:47:00,
2013-05-16 00:52:00,38.7,35.1,29.82,SE,144,0.0,2.0,87,0.00,,,0.00,meteohub,2013-05-16 07:52:00,
2013-05-16 00:57:00,38.5,34.9,29.81,SE,144,0.0,1.0,87,0.00,,,0.00,meteohub,2013-05-16 07:57:00,
2013-05-16 01:02:00,38.1,34.9,29.82,SE,144,0.0,1.0,88,0.00,,,0.00,meteohub,2013-05-16 08:02:00,
2013-05-16 01:07:00,38.1,34.9,29.82,SE,144,0.0,0.0,88,0.00,,,0.00,meteohub,2013-05-16 08:07:00,
2013-05-16 01:12:00,37.9,34.7,29.82,SE,144,0.0,0.0,88,0.00,,,0.00,meteohub,2013-05-16 08:12:00,
2013-05-16 01:17:00,37.8,34.9,29.82,SE,144,0.0,1.0,89,0.00,,,0.00,meteohub,2013-05-16 08:17:00,
2013-05-16 01:22:00,37.4,34.2,29.81,SE,144,0.0,1.0,88,0.00,,,0.00,meteohub,2013-05-16 08:22:00,
2013-05-16 01:27:00,37.0,33.8,29.82,SE,144,0.0,1.0,88,0.00,,,0.00,meteohub,2013-05-16 08:27:00,
2013-05-16 01:32:00,36.9,33.6,29.82,SE,144,0.0,1.0,88,0.00,,,0.00,meteohub,2013-05-16 08:32:00,
2013-05-16 01:37:00,36.5,33.6,29.82,SE,144,0.0,1.0,89,0.00,,,0.00,meteohub,2013-05-16 08:37:00,
2013-05-16 01:42:00,36.3,33.4,29.82,SE,144,0.0,1.0,89,0.00,,,0.00,meteohub,2013-05-16 08:42:00,
2013-05-16 01:47:00,36.3,33.4,29.82,SE,144,0.0,1.0,89,0.00,,,0.00,meteohub,2013-05-16 08:47:00,
2013-05-16 01:52:00,36.1,33.3,29.82,SE,144,0.0,1.0,89,0.00,,,0.00,meteohub,2013-05-16 08:52:00,
2013-05-16 01:57:00,36.0,33.3,29.82,SE,144,0.0,1.0,90,0.00,,,0.00,meteohub,2013-05-16 08:57:00,
2013-05-16 02:02:00,35.8,33.1,29.83,SE,144,0.0,0.0,90,0.00,,,0.00,meteohub,2013-05-16 09:02:00,
2013-05-16 02:07:00,35.6,33.3,29.83,SE,144,0.0,0.0,91,0.00,,,0.00,meteohub,2013-05-16 09:07:00,
2013-05-16 02:12:00,35.2,32.9,29.83,SE,144,0.0,1.0,91,0.00,,,0.00,meteohub,2013-05-16 09:12:00,
2013-05-16 02:17:00,35.2,32.9,29.83,SE,144,0.0,1.0,91,0.00,,,0.00,meteohub,2013-05-16 09:17:00,
2013-05-16 02:22:00,35.1,32.7,29.83,SE,144,2.0,2.0,91,0.00,,,0.00,meteohub,2013-05-16 09:22:00,
2013-05-16 02:27:00,35.1,32.9,29.83,SE,144,0.0,2.0,92,0.00,,,0.00,meteohub,2013-05-16 09:27:00,
2013-05-16 02:32:00,35.1,32.7,29.83,SE,144,0.0,2.0,91,0.00,,,0.00,meteohub,2013-05-16 09:32:00,
2013-05-16 02:37:00,34.9,32.5,29.83,SE,144,0.0,2.0,91,0.00,,,0.00,meteohub,2013-05-16 09:37:00,
2013-05-16 02:42:00,34.5,31.8,29.83,SE,144,0.0,0.0,90,0.00,,,0.00,meteohub,2013-05-16 09:42:00,
2013-05-16 02:47:00,34.2,31.8,29.83,SE,144,0.0,1.0,91,0.00,,,0.00,meteohub,2013-05-16 09:47:00,
2013-05-16 02:52:00,34.2,32.0,29.83,SE,144,1.0,1.0,92,0.00,,,0.00,meteohub,2013-05-16 09:52:00,
2013-05-16 02:57:00,34.0,31.6,29.83,SE,144,0.0,1.0,91,0.00,,,0.00,meteohub,2013-05-16 09:57:00,
2013-05-16 03:02:00,34.0,31.6,29.83,SE,144,0.0,1.0,91,0.00,,,0.00,meteohub,2013-05-16 10:02:00,
2013-05-16 03:07:00,33.8,31.6,29.83,SE,144,0.0,1.0,92,0.00,,,0.00,meteohub,2013-05-16 10:07:00,
2013-05-16 03:12:00,33.4,31.1,29.84,SE,144,0.0,1.0,91,0.00,,,0.00,meteohub,2013-05-16 10:12:00,
2013-05-16 03:17:00,33.3,31.1,29.84,SE,144,0.0,1.0,92,0.00,,,0.00,meteohub,2013-05-16 10:17:00,
2013-05-16 03:22:00,33.3,31.1,29.84,SE,144,0.0,1.0,92,0.00,,,0.00,meteohub,2013-05-16 10:22:00,
2013-05-16 03:27:00,33.3,31.5,29.83,SE,144,0.0,1.0,93,0.00,,,0.00,meteohub,2013-05-16 10:27:00,
2013-05-16 03:32:00,33.3,31.5,29.84,SE,144,0.0,2.0,93,0.00,,,0.00,meteohub,2013-05-16 10:32:00,
2013-05-16 03:37:00,33.1,31.1,29.84,SE,144,0.0,2.0,92,0.00,,,0.00,meteohub,2013-05-16 10:37:00,
2013-05-16 03:42:00,32.9,30.9,29.84,SE,144,0.0,2.0,92,0.00,,,0.00,meteohub,2013-05-16 10:42:00,
2013-05-16 03:47:00,32.7,30.7,29.84,SE,144,0.0,2.0,92,0.00,,,0.00,meteohub,2013-05-16 10:47:00,
2013-05-16 03:52:00,32.5,30.6,29.84,SE,144,0.0,1.0,92,0.00,,,0.00,meteohub,2013-05-16 10:52:00,
2013-05-16 03:57:00,32.4,30.4,29.84,SE,144,0.0,1.0,92,0.00,,,0.00,meteohub,2013-05-16 10:57:00,
2013-05-16 04:02:00,32.4,30.6,29.84,SE,144,0.0,1.0,93,0.00,,,0.00,meteohub,2013-05-16 11:02:00,
2013-05-16 04:07:00,32.2,30.2,29.84,SE,144,1.0,1.0,92,0.00,,,0.00,meteohub,2013-05-16 11:07:00,
2013-05-16 04:12:00,32.0,30.0,29.85,SE,144,0.0,3.0,92,0.00,,,0.00,meteohub,2013-05-16 11:12:00,
2013-05-16 04:17:00,31.8,30.0,29.84,SE,144,0.0,3.0,93,0.00,,,0.00,meteohub,2013-05-16 11:17:00,
2013-05-16 04:22:00,31.8,30.0,29.85,SE,144,1.0,3.0,93,0.00,,,0.00,meteohub,2013-05-16 11:22:00,
2013-05-16 04:27:00,32.2,30.4,29.85,SE,144,0.0,3.0,93,0.00,,,0.00,meteohub,2013-05-16 11:27:00,
2013-05-16 04:32:00,32.2,30.2,29.85,SE,144,0.0,3.0,92,0.00,,,0.00,meteohub,2013-05-16 11:32:00,
2013-05-16 04:37:00,31.8,29.5,29.85,SE,144,0.0,2.0,91,0.00,,,0.00,meteohub,2013-05-16 11:37:00,
2013-05-16 04:42:00,31.6,29.3,29.85,SE,144,0.0,2.0,91,0.00,,,0.00,meteohub,2013-05-16 11:42:00,
2013-05-16 04:47:00,31.3,28.9,29.85,SE,144,0.0,2.0,91,0.00,,,0.00,meteohub,2013-05-16 11:47:00,
2013-05-16 04:52:00,31.3,28.9,29.85,SE,144,0.0,2.0,91,0.00,,,0.00,meteohub,2013-05-16 11:52:00,
2013-05-16 04:57:00,31.3,29.3,29.86,SE,144,0.0,2.0,92,0.00,,,0.00,meteohub,2013-05-16 11:57:00,
2013-05-16 05:02:00,31.1,28.8,29.86,SE,144,0.0,2.0,91,0.00,,,0.00,meteohub,2013-05-16 12:02:00,
2013-05-16 05:07:00,30.9,28.9,29.86,SE,144,0.0,0.0,92,0.00,,,0.00,meteohub,2013-05-16 12:07:00,
2013-05-16 05:12:00,30.9,28.6,29.86,SE,144,0.0,0.0,91,0.00,,,0.00,meteohub,2013-05-16 12:12:00,
2013-05-16 05:17:00,30.7,28.4,29.87,SE,144,0.0,0.0,91,0.00,,,0.00,meteohub,2013-05-16 12:17:00,
2013-05-16 05:22:00,30.7,28.8,29.87,SE,144,0.0,0.0,92,0.00,,,0.00,meteohub,2013-05-16 12:22:00,
2013-05-16 05:32:00,30.6,28.6,29.88,SE,144,0.0,0.0,92,0.00,,,0.00,meteohub,2013-05-16 12:32:00,
2013-05-16 05:37:00,30.6,28.6,29.88,SE,144,0.0,0.0,92,0.00,,,0.00,meteohub,2013-05-16 12:37:00,
2013-05-16 05:42:00,30.6,28.8,29.88,SE,144,0.0,0.0,93,0.00,,,0.00,meteohub,2013-05-16 12:42:00,
2013-05-16 05:47:00,30.6,28.8,29.88,SE,144,0.0,1.0,93,0.00,,,0.00,meteohub,2013-05-16 12:47:00,
2013-05-16 05:52:00,30.6,28.8,29.88,SE,144,0.0,1.0,93,0.00,,,0.00,meteohub,2013-05-16 12:52:00,
2013-05-16 05:57:00,30.7,28.9,29.88,SE,144,0.0,1.0,93,0.00,,,0.00,meteohub,2013-05-16 12:57:00,
2013-05-16 06:02:00,30.9,28.9,29.89,SE,144,0.0,1.0,92,0.00,,,0.00,meteohub,2013-05-16 13:02:00,
2013-05-16 06:07:00,31.3,28.9,29.89,SE,144,0.0,1.0,91,0.00,,,0.00,meteohub,2013-05-16 13:07:00,
2013-05-16 06:12:00,31.5,29.1,29.89,SE,144,0.0,1.0,91,0.00,,,0.00,meteohub,2013-05-16 13:12:00,
2013-05-16 06:17:00,31.6,29.1,29.89,SE,144,0.0,1.0,90,0.00,,,0.00,meteohub,2013-05-16 13:17:00,
2013-05-16 06:22:00,31.8,28.9,29.89,SE,144,0.0,1.0,89,0.00,,,0.00,meteohub,2013-05-16 13:22:00,
2013-05-16 06:27:00,32.4,29.1,29.90,SE,144,1.0,1.0,88,0.00,,,0.00,meteohub,2013-05-16 13:27:00,
2013-05-16 06:32:00,33.1,30.2,29.90,SE,144,0.0,3.0,89,0.00,,,0.00,meteohub,2013-05-16 13:32:00,
2013-05-16 06:37:00,33.6,30.7,29.90,SE,144,0.0,3.0,89,0.00,,,0.00,meteohub,2013-05-16 13:37:00,
2013-05-16 06:42:00,34.3,30.9,29.90,SE,144,0.0,3.0,87,0.00,,,0.00,meteohub,2013-05-16 13:42:00,
2013-05-16 06:47:00,35.4,32.2,29.90,SE,144,0.0,2.0,88,0.00,,,0.00,meteohub,2013-05-16 13:47:00,
2013-05-16 06:52:00,36.9,31.6,29.90,SE,144,0.0,1.0,81,0.00,,,0.00,meteohub,2013-05-16 13:52:00,
2013-05-16 06:57:00,38.1,32.2,29.90,SE,144,0.0,1.0,79,0.00,,,0.00,meteohub,2013-05-16 13:57:00,
2013-05-16 07:02:00,39.6,32.4,29.90,SE,144,0.0,1.0,75,0.00,,,0.00,meteohub,2013-05-16 14:02:00,
2013-05-16 07:07:00,40.6,32.0,29.90,SE,144,0.0,1.0,71,0.00,,,0.00,meteohub,2013-05-16 14:07:00,
2013-05-16 07:12:00,41.4,32.0,29.90,SE,144,0.0,2.0,69,0.00,,,0.00,meteohub,2013-05-16 14:12:00,
2013-05-16 07:17:00,42.1,32.0,29.90,SE,144,0.0,2.0,67,0.00,,,0.00,meteohub,2013-05-16 14:17:00,
2013-05-16 07:27:00,42.3,32.5,29.89,SE,144,0.0,2.0,68,0.00,,,0.00,meteohub,2013-05-16 14:27:00,
2013-05-16 07:32:00,42.4,32.7,29.89,SE,144,0.0,2.0,68,0.00,,,0.00,meteohub,2013-05-16 14:32:00,
2013-05-16 07:37:00,43.2,32.5,29.89,SE,144,0.0,2.0,66,0.00,,,0.00,meteohub,2013-05-16 14:37:00,
2013-05-16 07:42:00,43.9,32.9,29.88,SE,144,1.0,1.0,65,0.00,,,0.00,meteohub,2013-05-16 14:42:00,
2013-05-16 07:47:00,44.4,33.8,29.88,SE,144,2.0,2.0,66,0.00,,,0.00,meteohub,2013-05-16 14:47:00,
2013-05-16 07:52:00,45.0,33.4,29.88,SE,144,0.0,2.0,64,0.00,,,0.00,meteohub,2013-05-16 14:52:00,
2013-05-16 07:57:00,45.1,33.6,29.88,SE,144,1.0,2.0,64,0.00,,,0.00,meteohub,2013-05-16 14:57:00,
2013-05-16 08:02:00,45.5,34.0,29.88,SE,144,1.0,2.0,64,0.00,,,0.00,meteohub,2013-05-16 15:02:00,
2013-05-16 08:07:00,45.9,35.1,29.88,SE,145,1.0,3.0,66,0.00,,,0.00,meteohub,2013-05-16 15:07:00,
2013-05-16 08:12:00,46.6,35.4,29.87,West,280,3.0,3.0,65,0.00,,,0.00,meteohub,2013-05-16 15:12:00,
2013-05-16 08:17:00,47.1,36.0,29.87,WNW,284,2.0,3.0,65,0.00,,,0.00,meteohub,2013-05-16 15:17:00,
2013-05-16 08:22:00,47.7,36.1,29.87,WNW,284,3.0,4.0,64,0.00,,,0.00,meteohub,2013-05-16 15:22:00,
2013-05-16 08:27:00,48.0,35.6,29.87,WNW,284,3.0,4.0,62,0.00,,,0.00,meteohub,2013-05-16 15:27:00,
2013-05-16 08:32:00,48.6,33.6,29.86,WNW,284,0.0,4.0,56,0.00,,,0.00,meteohub,2013-05-16 15:32:00,
2013-05-16 08:37:00,49.1,33.6,29.86,WNW,284,0.0,4.0,55,0.00,,,0.00,meteohub,2013-05-16 15:37:00,
2013-05-16 08:42:00,49.6,33.6,29.86,WNW,284,2.0,4.0,54,0.00,,,0.00,meteohub,2013-05-16 15:42:00,
2013-05-16 08:47:00,50.4,32.9,29.86,WNW,284,1.0,4.0,51,0.00,,,0.00,meteohub,2013-05-16 15:47:00,
2013-05-16 08:52:00,51.1,32.5,29.86,WNW,284,3.0,4.0,49,0.00,,,0.00,meteohub,2013-05-16 15:52:00,
2013-05-16 08:57:00,51.8,33.3,29.86,WNW,290,4.0,5.0,49,0.00,,,0.00,meteohub,2013-05-16 15:57:00,
2013-05-16 09:02:00,52.3,31.6,29.86,WNW,298,1.0,5.0,45,0.00,,,0.00,meteohub,2013-05-16 16:02:00,
2013-05-16 09:07:00,52.9,32.2,29.86,WNW,298,2.0,5.0,45,0.00,,,0.00,meteohub,2013-05-16 16:07:00,
2013-05-16 09:12:00,53.4,30.4,29.85,WNW,286,2.0,4.0,41,0.00,,,0.00,meteohub,2013-05-16 16:12:00,
2013-05-16 09:17:00,54.1,31.5,29.85,WNW,286,4.0,4.0,42,0.00,,,0.00,meteohub,2013-05-16 16:17:00,
2013-05-16 09:22:00,54.9,31.6,29.85,West,275,3.0,4.0,41,0.00,,,0.00,meteohub,2013-05-16 16:22:00,
2013-05-16 09:27:00,55.6,32.9,29.85,WNW,298,2.0,4.0,42,0.00,,,0.00,meteohub,2013-05-16 16:27:00,
2013-05-16 09:32:00,56.5,32.4,29.85,WNW,284,3.0,4.0,40,0.00,,,0.00,meteohub,2013-05-16 16:32:00,
2013-05-16 09:37:00,56.8,34.5,29.85,WSW,250,4.0,5.0,43,0.00,,,0.00,meteohub,2013-05-16 16:37:00,
2013-05-16 09:42:00,57.2,34.3,29.84,West,261,4.0,5.0,42,0.00,,,0.00,meteohub,2013-05-16 16:42:00,
2013-05-16 09:47:00,57.9,36.7,29.84,West,274,4.0,6.0,45,0.00,,,0.00,meteohub,2013-05-16 16:47:00,
2013-05-16 09:52:00,59.4,33.1,29.84,NW,325,8.0,13.0,37,0.00,,,0.00,meteohub,2013-05-16 16:52:00,
2013-05-16 09:57:00,60.3,33.3,29.84,NW,307,8.0,13.0,36,0.00,,,0.00,meteohub,2013-05-16 16:57:00,
2013-05-16 10:02:00,60.6,34.2,29.84,NNW,335,1.0,13.0,37,0.00,,,0.00,meteohub,2013-05-16 17:02:00,
2013-05-16 10:07:00,61.3,34.9,29.83,NW,320,5.0,11.0,37,0.00,,,0.00,meteohub,2013-05-16 17:07:00,
2013-05-16 10:12:00,61.3,32.0,29.83,WSW,238,5.0,11.0,33,0.00,,,0.00,meteohub,2013-05-16 17:12:00,
2013-05-16 10:17:00,61.0,33.8,29.83,West,265,4.0,9.0,36,0.00,,,0.00,meteohub,2013-05-16 17:17:00,
2013-05-16 10:22:00,61.0,32.4,29.83,South,184,3.0,8.0,34,0.00,,,0.00,meteohub,2013-05-16 17:22:00,
2013-05-16 10:27:00,61.3,34.2,29.82,SSE,163,2.0,8.0,36,0.00,,,0.00,meteohub,2013-05-16 17:27:00,
2013-05-16 10:32:00,62.1,31.8,29.82,NW,311,5.0,8.0,32,0.00,,,0.00,meteohub,2013-05-16 17:32:00,
2013-05-16 10:37:00,63.0,33.4,29.82,NW,309,4.0,8.0,33,0.00,,,0.00,meteohub,2013-05-16 17:37:00,
2013-05-16 10:42:00,63.1,29.5,29.82,WSW,252,2.0,8.0,28,0.00,,,0.00,meteohub,2013-05-16 17:42:00,
2013-05-16 10:47:00,63.5,29.8,29.81,SSE,167,4.0,9.0,28,0.00,,,0.00,meteohub,2013-05-16 17:47:00,
2013-05-16 10:52:00,63.5,30.7,29.81,WSW,243,0.0,9.0,29,0.00,,,0.00,meteohub,2013-05-16 17:52:00,
2013-05-16 10:57:00,63.0,31.1,29.81,SSW,212,4.0,8.0,30,0.00,,,0.00,meteohub,2013-05-16 17:57:00,
2013-05-16 11:02:00,63.0,32.7,29.81,West,281,6.0,8.0,32,0.00,,,0.00,meteohub,2013-05-16 18:02:00,
2013-05-16 11:07:00,63.3,31.3,29.81,WSW,244,3.0,8.0,30,0.00,,,0.00,meteohub,2013-05-16 18:07:00,
2013-05-16 11:12:00,63.9,30.9,29.81,East,89,2.0,7.0,29,0.00,,,0.00,meteohub,2013-05-16 18:12:00,
2013-05-16 11:17:00,64.6,30.7,29.80,SSW,210,1.0,7.0,28,0.00,,,0.00,meteohub,2013-05-16 18:17:00,
2013-05-16 11:22:00,65.5,28.8,29.79,ENE,63,2.0,6.0,25,0.00,,,0.00,meteohub,2013-05-16 18:22:00,
2013-05-16 11:27:00,65.8,28.9,29.79,NW,324,2.0,6.0,25,0.00,,,0.00,meteohub,2013-05-16 18:27:00,
2013-05-16 11:32:00,65.8,30.9,29.79,WSW,246,0.0,8.0,27,0.00,,,0.00,meteohub,2013-05-16 18:32:00,
2013-05-16 11:42:00,66.7,26.6,29.78,ENE,71,5.0,12.0,22,0.00,,,0.00,meteohub,2013-05-16 18:42:00,
2013-05-16 11:47:00,67.1,28.0,29.78,WNW,301,13.0,13.0,23,0.00,,,0.00,meteohub,2013-05-16 18:47:00,
2013-05-16 11:52:00,67.1,25.9,29.78,WNW,302,6.0,13.0,21,0.00,,,0.00,meteohub,2013-05-16 18:52:00,
2013-05-16 11:57:00,67.3,28.2,29.78,NNW,332,7.0,13.0,23,0.00,,,0.00,meteohub,2013-05-16 18:57:00,
2013-05-16 12:02:00,67.1,30.0,29.78,NNE,24,4.0,13.0,25,0.00,,,0.00,meteohub,2013-05-16 19:02:00,
2013-05-16 12:07:00,66.7,24.4,29.78,West,273,1.0,12.0,20,0.00,,,0.00,meteohub,2013-05-16 19:07:00,
2013-05-16 12:12:00,67.3,26.1,29.77,NW,313,6.0,12.0,21,0.00,,,0.00,meteohub,2013-05-16 19:12:00,
2013-05-16 12:17:00,66.7,29.8,29.77,NW,306,10.0,13.0,25,0.00,,,0.00,meteohub,2013-05-16 19:17:00,
2013-05-16 12:22:00,66.9,30.9,29.77,NW,319,10.0,14.0,26,0.00,,,0.00,meteohub,2013-05-16 19:22:00,
2013-05-16 12:27:00,67.5,28.4,29.77,WNW,301,5.0,14.0,23,0.00,,,0.00,meteohub,2013-05-16 19:27:00,
2013-05-16 12:32:00,67.8,26.4,29.77,WNW,286,6.0,14.0,21,0.00,,,0.00,meteohub,2013-05-16 19:32:00,
2013-05-16 12:37:00,68.5,27.1,29.77,NW,304,4.0,14.0,21,0.00,,,0.00,meteohub,2013-05-16 19:37:00,
2013-05-16 12:42:00,69.1,26.2,29.77,North,9,7.0,11.0,20,0.00,,,0.00,meteohub,2013-05-16 19:42:00,
2013-05-16 12:47:00,68.5,27.1,29.77,NW,310,5.0,13.0,21,0.00,,,0.00,meteohub,2013-05-16 19:47:00,
2013-05-16 12:52:00,68.4,25.7,29.76,NE,42,5.0,13.0,20,0.00,,,0.00,meteohub,2013-05-16 19:52:00,
2013-05-16 12:57:00,68.4,30.2,29.76,WNW,283,10.0,13.0,24,0.00,,,0.00,meteohub,2013-05-16 19:57:00,
2013-05-16 13:02:00,68.2,26.8,29.76,NW,321,8.0,12.0,21,0.00,,,0.00,meteohub,2013-05-16 20:02:00,
2013-05-16 13:07:00,68.5,28.2,29.76,WNW,299,9.0,12.0,22,0.00,,,0.00,meteohub,2013-05-16 20:07:00,
2013-05-16 13:12:00,69.1,25.2,29.76,NW,320,8.0,16.0,19,0.00,,,0.00,meteohub,2013-05-16 20:12:00,
2013-05-16 13:17:00,68.7,28.4,29.76,NW,309,11.0,17.0,22,0.00,,,0.00,meteohub,2013-05-16 20:17:00,
2013-05-16 13:22:00,68.4,21.9,29.75,NNE,13,6.0,18.0,17,0.00,,,0.00,meteohub,2013-05-16 20:22:00,
2013-05-16 13:27:00,68.4,27.0,29.75,NW,317,4.0,18.0,21,0.00,,,0.00,meteohub,2013-05-16 20:27:00,
2013-05-16 13:32:00,68.5,29.3,29.76,NW,311,9.0,18.0,23,0.00,,,0.00,meteohub,2013-05-16 20:32:00,
2013-05-16 13:37:00,67.8,29.7,29.75,NW,315,4.0,13.0,24,0.00,,,0.00,meteohub,2013-05-16 20:37:00,
2013-05-16 13:42:00,68.2,28.9,29.75,WNW,300,5.0,13.0,23,0.00,,,0.00,meteohub,2013-05-16 20:42:00,
2013-05-16 13:47:00,68.5,27.1,29.75,NW,318,7.0,15.0,21,0.00,,,0.00,meteohub,2013-05-16 20:47:00,
2013-05-16 13:52:00,68.4,27.0,29.75,NW,317,7.0,15.0,21,0.00,,,0.00,meteohub,2013-05-16 20:52:00,
2013-05-16 13:57:00,67.6,23.9,29.75,WNW,302,0.0,15.0,19,0.00,,,0.00,meteohub,2013-05-16 20:57:00,
2013-05-16 14:02:00,67.3,28.2,29.75,NW,314,7.0,12.0,23,0.00,,,0.00,meteohub,2013-05-16 21:02:00,
2013-05-16 14:07:00,66.6,26.6,29.75,NW,316,9.0,12.0,22,0.00,,,0.00,meteohub,2013-05-16 21:07:00,
2013-05-16 14:12:00,65.8,25.9,29.75,NW,309,9.0,16.0,22,0.00,,,0.00,meteohub,2013-05-16 21:12:00,
2013-05-16 14:17:00,65.7,28.9,29.75,NW,322,14.0,16.0,25,0.00,,,0.00,meteohub,2013-05-16 21:17:00,
2013-05-16 14:22:00,65.3,25.5,29.75,NW,311,5.0,18.0,22,0.00,,,0.00,meteohub,2013-05-16 21:22:00,
2013-05-16 14:27:00,65.5,26.8,29.75,NW,317,5.0,18.0,23,0.00,,,0.00,meteohub,2013-05-16 21:27:00,
2013-05-16 14:32:00,65.8,25.9,29.74,NNW,348,2.0,18.0,22,0.00,,,0.00,meteohub,2013-05-16 21:32:00,
2013-05-16 14:37:00,66.0,23.7,29.74,NE,53,1.0,13.0,20,0.00,,,0.00,meteohub,2013-05-16 21:37:00,
2013-05-16 14:42:00,66.9,28.9,29.73,NW,313,3.0,9.0,24,0.00,,,0.00,meteohub,2013-05-16 21:42:00,
2013-05-16 14:47:00,68.2,27.9,29.73,NNE,16,5.0,21.0,22,0.00,,,0.00,meteohub,2013-05-16 21:47:00,
2013-05-16 14:52:00,68.4,27.0,29.73,NW,308,9.0,21.0,21,0.00,,,0.00,meteohub,2013-05-16 21:52:00,
2013-05-16 14:57:00,67.8,27.5,29.73,NW,311,12.0,21.0,22,0.00,,,0.00,meteohub,2013-05-16 21:57:00,
2013-05-16 15:02:00,68.4,28.0,29.73,NW,320,14.0,18.0,22,0.00,,,0.00,meteohub,2013-05-16 22:02:00,
2013-05-16 15:07:00,68.2,25.5,29.73,NW,311,10.0,16.0,20,0.00,,,0.00,meteohub,2013-05-16 22:07:00,
2013-05-16 15:12:00,68.2,31.1,29.72,NW,320,2.0,18.0,25,0.00,,,0.00,meteohub,2013-05-16 22:12:00,
2013-05-16 15:17:00,68.2,27.9,29.72,WNW,303,13.0,18.0,22,0.00,,,0.00,meteohub,2013-05-16 22:17:00,
2013-05-16 15:22:00,68.2,25.5,29.72,NW,308,7.0,18.0,20,0.00,,,0.00,meteohub,2013-05-16 22:22:00,
2013-05-16 15:27:00,68.7,28.4,29.71,NW,304,7.0,17.0,22,0.00,,,0.00,meteohub,2013-05-16 22:27:00,
2013-05-16 15:32:00,68.7,26.1,29.72,NW,310,9.0,17.0,20,0.00,,,0.00,meteohub,2013-05-16 22:32:00,
2013-05-16 15:37:00,69.1,28.6,29.72,NW,309,10.0,17.0,22,0.00,,,0.00,meteohub,2013-05-16 22:37:00,
2013-05-16 15:42:00,68.5,28.2,29.73,West,275,6.0,17.0,22,0.00,,,0.00,meteohub,2013-05-16 22:42:00,
2013-05-16 15:47:00,67.3,30.2,29.73,WNW,292,5.0,17.0,25,0.00,,,0.00,meteohub,2013-05-16 22:47:00,
2013-05-16 15:52:00,66.4,26.4,29.73,NW,324,6.0,19.0,22,0.00,,,0.00,meteohub,2013-05-16 22:52:00,
2013-05-16 15:57:00,66.0,29.1,29.73,West,281,6.0,19.0,25,0.00,,,0.00,meteohub,2013-05-16 22:57:00,
2013-05-16 16:02:00,66.0,29.1,29.73,WNW,302,4.0,19.0,25,0.00,,,0.00,meteohub,2013-05-16 23:02:00,
2013-05-16 16:07:00,66.7,27.7,29.73,NW,309,7.0,14.0,23,0.00,,,0.00,meteohub,2013-05-16 23:07:00,
2013-05-16 16:12:00,66.7,24.4,29.73,NW,315,5.0,15.0,20,0.00,,,0.00,meteohub,2013-05-16 23:12:00,
2013-05-16 16:17:00,66.6,28.6,29.73,NW,313,5.0,15.0,24,0.00,,,0.00,meteohub,2013-05-16 23:17:00,
2013-05-16 16:22:00,66.4,25.3,29.73,WNW,298,8.0,15.0,21,0.00,,,0.00,meteohub,2013-05-16 23:22:00,
2013-05-16 16:27:00,66.2,27.3,29.73,NW,307,6.0,15.0,23,0.00,,,0.00,meteohub,2013-05-16 23:27:00,
2013-05-16 16:32:00,66.2,30.4,29.73,West,268,8.0,15.0,26,0.00,,,0.00,meteohub,2013-05-16 23:32:00,
2013-05-16 16:37:00,65.8,25.9,29.73,NW,315,7.0,13.0,22,0.00,,,0.00,meteohub,2013-05-16 23:37:00,
2013-05-16 16:42:00,65.8,27.0,29.73,NW,309,7.0,12.0,23,0.00,,,0.00,meteohub,2013-05-16 23:42:00,
2013-05-16 16:47:00,65.7,26.8,29.73,WNW,296,9.0,12.0,23,0.00,,,0.00,meteohub,2013-05-16 23:47:00,
2013-05-16 16:52:00,65.5,27.7,29.73,NW,323,7.0,12.0,24,0.00,,,0.00,meteohub,2013-05-16 23:52:00,
2013-05-16 17:02:00,66.2,26.2,29.72,West,278,6.0,11.0,22,0.00,,,0.00,meteohub,2013-05-17 00:02:00,
2013-05-16 17:07:00,66.4,26.4,29.72,NW,308,10.0,14.0,22,0.00,,,0.00,meteohub,2013-05-17 00:07:00,
2013-05-16 17:12:00,65.8,25.9,29.73,NW,311,6.0,14.0,22,0.00,,,0.00,meteohub,2013-05-17 00:12:00,
2013-05-16 17:17:00,65.5,25.7,29.72,NW,304,7.0,14.0,22,0.00,,,0.00,meteohub,2013-05-17 00:17:00,
2013-05-16 17:22:00,65.5,27.7,29.72,NW,311,10.0,14.0,24,0.00,,,0.00,meteohub,2013-05-17 00:22:00,
2013-05-16 17:27:00,65.5,29.7,29.72,WNW,297,7.0,11.0,26,0.00,,,0.00,meteohub,2013-05-17 00:27:00,
2013-05-16 17:37:00,64.9,26.2,29.72,NW,304,11.0,12.0,23,0.00,,,0.00,meteohub,2013-05-17 00:37:00,
2013-05-16 17:47:00,65.8,28.0,29.71,NE,49,5.0,12.0,24,0.00,,,0.00,meteohub,2013-05-17 00:47:00,
2013-05-16 17:52:00,66.0,29.1,29.71,WNW,302,5.0,12.0,25,0.00,,,0.00,meteohub,2013-05-17 00:52:00,
2013-05-16 17:57:00,65.8,28.0,29.71,West,275,10.0,12.0,24,0.00,,,0.00,meteohub,2013-05-17 00:57:00,
2013-05-16 18:02:00,65.5,26.8,29.71,NW,309,7.0,11.0,23,0.00,,,0.00,meteohub,2013-05-17 01:02:00,
2013-05-16 18:07:00,64.9,28.2,29.71,WNW,296,6.0,10.0,25,0.00,,,0.00,meteohub,2013-05-17 01:07:00,
2013-05-16 18:12:00,64.4,26.8,29.71,WNW,302,6.0,10.0,24,0.00,,,0.00,meteohub,2013-05-17 01:12:00,
2013-05-16 18:17:00,63.9,26.4,29.71,NW,323,9.0,10.0,24,0.00,,,0.00,meteohub,2013-05-17 01:17:00,
2013-05-16 18:22:00,63.3,28.8,29.71,NW,317,5.0,10.0,27,0.00,,,0.00,meteohub,2013-05-17 01:22:00,
2013-05-16 18:27:00,62.4,29.7,29.72,NW,316,5.0,10.0,29,0.00,,,0.00,meteohub,2013-05-17 01:27:00,
2013-05-16 18:32:00,61.5,28.9,29.72,NNE,22,4.0,10.0,29,0.00,,,0.00,meteohub,2013-05-17 01:32:00,
2013-05-16 18:37:00,61.3,28.8,29.72,WNW,302,4.0,8.0,29,0.00,,,0.00,meteohub,2013-05-17 01:37:00,
2013-05-16 18:42:00,61.5,28.0,29.73,NW,311,5.0,8.0,28,0.00,,,0.00,meteohub,2013-05-17 01:42:00,
2013-05-16 18:47:00,61.3,28.8,29.73,WNW,303,6.0,8.0,29,0.00,,,0.00,meteohub,2013-05-17 01:47:00,
2013-05-16 18:52:00,61.0,27.7,29.73,NNW,329,2.0,8.0,28,0.00,,,0.00,meteohub,2013-05-17 01:52:00,
2013-05-16 19:02:00,60.4,27.1,29.73,NW,318,0.0,6.0,28,0.00,,,0.00,meteohub,2013-05-17 02:02:00,
2013-05-16 19:07:00,60.3,27.9,29.73,NW,318,0.0,5.0,29,0.00,,,0.00,meteohub,2013-05-17 02:07:00,
2013-05-16 19:12:00,59.9,27.5,29.73,NW,318,0.0,5.0,29,0.00,,,0.00,meteohub,2013-05-17 02:12:00,
2013-05-16 19:17:00,59.4,28.8,29.73,NW,319,2.0,4.0,31,0.00,,,0.00,meteohub,2013-05-17 02:17:00,
2013-05-16 19:22:00,58.8,25.7,29.74,SSE,164,3.0,4.0,28,0.00,,,0.00,meteohub,2013-05-17 02:22:00,
2013-05-16 19:27:00,58.3,27.0,29.74,ESE,117,2.0,4.0,30,0.00,,,0.00,meteohub,2013-05-17 02:27:00,
2013-05-16 19:32:00,57.7,25.7,29.74,East,87,3.0,6.0,29,0.00,,,0.00,meteohub,2013-05-17 02:32:00,
2013-05-16 19:37:00,57.6,27.9,29.75,SSE,155,3.0,6.0,32,0.00,,,0.00,meteohub,2013-05-17 02:37:00,
2013-05-16 19:42:00,56.3,28.2,29.75,ESE,108,3.0,7.0,34,0.00,,,0.00,meteohub,2013-05-17 02:42:00,
2013-05-16 19:47:00,55.2,31.3,29.75,SSE,151,2.0,7.0,40,0.00,,,0.00,meteohub,2013-05-17 02:47:00,
2013-05-16 19:52:00,54.0,32.0,29.75,South,175,4.0,6.0,43,0.00,,,0.00,meteohub,2013-05-17 02:52:00,
2013-05-16 19:57:00,53.1,31.6,29.75,SSE,165,0.0,8.0,44,0.00,,,0.00,meteohub,2013-05-17 02:57:00,
2013-05-16 20:02:00,53.1,28.8,29.75,SSE,164,4.0,8.0,39,0.00,,,0.00,meteohub,2013-05-17 03:02:00,
2013-05-16 20:12:00,51.4,33.4,29.76,SSE,153,5.0,6.0,50,0.00,,,0.00,meteohub,2013-05-17 03:12:00,
2013-05-16 20:17:00,50.5,34.0,29.76,SSE,165,3.0,7.0,53,0.00,,,0.00,meteohub,2013-05-17 03:17:00,
2013-05-16 20:22:00,50.4,32.4,29.76,SSE,163,3.0,7.0,50,0.00,,,0.00,meteohub,2013-05-17 03:22:00,
2013-05-16 20:27:00,50.5,28.2,29.76,SSE,163,1.0,7.0,42,0.00,,,0.00,meteohub,2013-05-17 03:27:00,
2013-05-16 20:32:00,51.3,28.4,29.76,SSE,165,0.0,7.0,41,0.00,,,0.00,meteohub,2013-05-17 03:32:00,
2013-05-16 20:37:00,51.4,29.1,29.76,SSE,163,5.0,7.0,42,0.00,,,0.00,meteohub,2013-05-17 03:37:00,
2013-05-16 20:42:00,51.6,28.0,29.76,SSE,157,3.0,7.0,40,0.00,,,0.00,meteohub,2013-05-17 03:42:00,
2013-05-16 20:47:00,51.3,27.7,29.77,South,180,0.0,7.0,40,0.00,,,0.00,meteohub,2013-05-17 03:47:00,
2013-05-16 20:52:00,51.1,31.1,29.77,South,181,0.0,7.0,46,0.00,,,0.00,meteohub,2013-05-17 03:52:00,
2013-05-16 20:57:00,50.4,31.5,29.77,South,181,0.0,4.0,48,0.00,,,0.00,meteohub,2013-05-17 03:57:00,
2013-05-16 21:02:00,49.8,27.7,29.77,East,100,3.0,3.0,42,0.00,,,0.00,meteohub,2013-05-17 04:02:00,
2013-05-16 21:07:00,50.2,27.3,29.78,ESE,119,1.0,4.0,41,0.00,,,0.00,meteohub,2013-05-17 04:07:00,
2013-05-16 21:17:00,48.7,30.4,29.78,SSW,200,0.0,4.0,49,0.00,,,0.00,meteohub,2013-05-17 04:17:00,
2013-05-16 21:22:00,48.4,30.6,29.78,SW,229,4.0,6.0,50,0.00,,,0.00,meteohub,2013-05-17 04:22:00,
2013-05-16 21:27:00,48.6,29.3,29.78,East,100,5.0,7.0,47,0.00,,,0.00,meteohub,2013-05-17 04:27:00,
2013-05-16 21:32:00,48.6,30.7,29.78,SSW,196,0.0,7.0,50,0.00,,,0.00,meteohub,2013-05-17 04:32:00,
2013-05-16 21:37:00,48.2,29.5,29.78,West,276,2.0,7.0,48,0.00,,,0.00,meteohub,2013-05-17 04:37:00,
2013-05-16 21:42:00,47.7,28.9,29.78,East,99,3.0,6.0,48,0.00,,,0.00,meteohub,2013-05-17 04:42:00,
2013-05-16 21:47:00,47.3,31.1,29.79,NNE,23,2.0,5.0,53,0.00,,,0.00,meteohub,2013-05-17 04:47:00,
2013-05-16 21:52:00,47.1,29.5,29.79,East,80,0.0,5.0,50,0.00,,,0.00,meteohub,2013-05-17 04:52:00,
2013-05-16 21:57:00,46.9,31.1,29.78,East,82,2.0,5.0,54,0.00,,,0.00,meteohub,2013-05-17 04:57:00,
2013-05-16 22:02:00,46.8,30.9,29.79,East,89,0.0,5.0,54,0.00,,,0.00,meteohub,2013-05-17 05:02:00,
2013-05-16 22:07:00,45.7,30.0,29.79,SSW,205,0.0,3.0,54,0.00,,,0.00,meteohub,2013-05-17 05:07:00,
2013-05-16 22:12:00,45.1,30.0,29.79,SSW,205,0.0,3.0,55,0.00,,,0.00,meteohub,2013-05-17 05:12:00,
2013-05-16 22:17:00,44.6,28.9,29.79,SSW,192,1.0,3.0,54,0.00,,,0.00,meteohub,2013-05-17 05:17:00,
2013-05-16 22:22:00,44.4,30.6,29.78,SSW,192,0.0,2.0,58,0.00,,,0.00,meteohub,2013-05-17 05:22:00,
2013-05-16 22:27:00,44.1,30.7,29.79,SSW,192,0.0,2.0,59,0.00,,,0.00,meteohub,2013-05-17 05:27:00,
2013-05-16 22:32:00,43.7,30.7,29.79,SSW,192,0.0,2.0,60,0.00,,,0.00,meteohub,2013-05-17 05:32:00,
2013-05-16 22:37:00,43.3,30.0,29.79,SSW,192,0.0,1.0,59,0.00,,,0.00,meteohub,2013-05-17 05:37:00,
2013-05-16 22:42:00,43.2,29.8,29.79,SSW,192,0.0,1.0,59,0.00,,,0.00,meteohub,2013-05-17 05:42:00,
2013-05-16 22:47:00,43.0,30.4,29.79,SSW,192,0.0,1.0,61,0.00,,,0.00,meteohub,2013-05-17 05:47:00,
2013-05-16 22:52:00,43.0,29.7,29.79,SSW,192,0.0,1.0,59,0.00,,,0.00,meteohub,2013-05-17 05:52:00,
2013-05-16 22:57:00,42.8,27.7,29.79,SSW,192,0.0,1.0,55,0.00,,,0.00,meteohub,2013-05-17 05:57:00,
2013-05-16 23:02:00,42.6,33.1,29.79,SSW,192,0.0,0.0,69,0.00,,,0.00,meteohub,2013-05-17 06:02:00,
2013-05-16 23:07:00,42.3,32.2,29.79,SSW,192,0.0,2.0,67,0.00,,,0.00,meteohub,2013-05-17 06:07:00,
2013-05-16 23:12:00,41.9,31.8,29.79,SSW,192,0.0,2.0,67,0.00,,,0.00,meteohub,2013-05-17 06:12:00,
2013-05-16 23:17:00,41.7,31.3,29.79,SSW,192,0.0,2.0,66,0.00,,,0.00,meteohub,2013-05-17 06:17:00,
2013-05-16 23:22:00,41.7,31.3,29.78,SSW,192,0.0,1.0,66,0.00,,,0.00,meteohub,2013-05-17 06:22:00,
2013-05-16 23:27:00,41.5,32.9,29.79,SSW,192,0.0,1.0,71,0.00,,,0.00,meteohub,2013-05-17 06:27:00,
2013-05-16 23:32:00,41.2,33.3,29.79,SSW,192,0.0,0.0,73,0.00,,,0.00,meteohub,2013-05-17 06:32:00,
2013-05-16 23:37:00,40.8,30.7,29.78,SSW,192,0.0,2.0,67,0.00,,,0.00,meteohub,2013-05-17 06:37:00,
2013-05-16 23:42:00,40.8,30.7,29.78,SSW,192,0.0,2.0,67,0.00,,,0.00,meteohub,2013-05-17 06:42:00,
2013-05-16 23:47:00,40.8,30.4,29.79,SSW,192,0.0,2.0,66,0.00,,,0.00,meteohub,2013-05-17 06:47:00,
2013-05-16 23:52:00,40.8,31.5,29.78,SSW,192,0.0,2.0,69,0.00,,,0.00,meteohub,2013-05-17 06:52:00,
2013-05-16 23:57:00,40.6,31.3,29.78,SSW,192,1.0,3.0,69,0.00,,,0.00,meteohub,2013-05-17 06:57:00,